RCSS/TSA METAR and TAF weather

Enter ICAO airport designator
Station Type Date Time Source
RCSS METAR 2021/03/01 03:00 UTC NOAA

RCSS 010300Z 25007KT 7000 FEW025 SCT200 23/19 Q1018 NOSIG RMK 28007KT/R10 A3006


Station Type Date Time Source
RCSS Decoded METAR 2021/03/01 03:00 UTC NOAA

Sungshan / Taipei, Taiwan (RCSS) 25-04N 121-33E
Feb 28, 2021 - 10:00 PM EST / 2021.03.01 0300 UTC
Wind: from the WSW (250 degrees) at 8 MPH (7 KT):0
Visibility: 4 mile(s):0
Sky conditions: partly cloudy
Temperature: 73 F (23 C)
Dew Point: 66 F (19 C)
Relative Humidity: 78%
Pressure (altimeter): 30.06 in. Hg (1018 hPa)
ob: RCSS 010300Z 25007KT 7000 FEW025 SCT200 23/19 Q1018 NOSIG RMK 28007KT/R10 A3006
cycle: 3

Station Type Date Time Source
RCSS TAF 2021/02/28 18:03 UTC NOAA

TAF RCSS 281700Z 2818/0118 09005KT 9999 FEW015 BKN032
TEMPO 2820/0102 VRB05KT 5000 BR SCT012 BKN018 BKN030
BECMG 0102/0104 30005KT
TEMPO 0112/0118 VRB05KT 5000 BR SCT010 BKN016 BKN030

Example: see airport list